Wetterdaten: Juni 2013
Datum Temp Feuchte Luftdruck Regen Wind Richtung Sonnenschein UV Solar Windben
01.06.2013 9,6 C 99 % 1014,1 hPa 0,4 l/m 4,0 km/h N-NW 0,00 h 0,7 UV-I 44 W/m 17,3 km/h
02.06.2013 10,6 C 67 % 1022,5 hPa 0,0 l/m 13,9 km/h N-NW 7,67 h 3,0 UV-I 358 W/m 33,0 km/h
03.06.2013 11,7 C 71 % 1025,1 hPa 0,0 l/m 4,5 km/h N-NW 9,75 h 3,6 UV-I 437 W/m 16,1 km/h
04.06.2013 13,6 C 78 % 1021,0 hPa 0,0 l/m 1,6 km/h N-NW 6,17 h 3,1 UV-I 339 W/m 4,8 km/h
05.06.2013 15,8 C 64 % 1018,7 hPa 0,0 l/m 4,1 km/h S-SO 8,92 h 3,1 UV-I 395 W/m 8,9 km/h
06.06.2013 17,6 C 61 % 1020,1 hPa 0,0 l/m 1,3 km/h SO 12,17 h 3,2 UV-I 456 W/m 3,6 km/h
07.06.2013 18,7 C 70 % 1019,5 hPa 0,0 l/m 1,1 km/h N-NO 9,92 h 2,8 UV-I 404 W/m 3,6 km/h
08.06.2013 18,6 C 67 % 1014,9 hPa 0,0 l/m 4,4 km/h N-NO 9,00 h 2,9 UV-I 397 W/m 13,3 km/h
09.06.2013 14,1 C 82 % 1010,1 hPa 0,0 l/m 1,6 km/h N-NO 4,33 h 2,4 UV-I 264 W/m 8,8 km/h
10.06.2013 13,0 C 82 % 1012,1 hPa 0,0 l/m 2,0 km/h N-NW 6,83 h 2,5 UV-I 333 W/m 6,4 km/h
11.06.2013 14,9 C 77 % 1016,5 hPa 0,0 l/m 0,6 km/h NW 8,67 h 2,9 UV-I 390 W/m 3,6 km/h
12.06.2013 17,7 C 79 % 1016,7 hPa 0,0 l/m 3,8 km/h S 3,92 h 2,4 UV-I 207 W/m 7,2 km/h
13.06.2013 16,1 C 87 % 1013,2 hPa 16,0 l/m 3,3 km/h S 3,17 h 3,1 UV-I 238 W/m 15,7 km/h
14.06.2013 13,8 C 79 % 1018,1 hPa 0,2 l/m 0,6 km/h S-SW 3,17 h 2,5 UV-I 276 W/m 3,6 km/h
15.06.2013 15,0 C 75 % 1012,0 hPa 0,4 l/m 9,5 km/h S 6,00 h 2,3 UV-I 284 W/m 18,1 km/h
16.06.2013 15,2 C 73 % 1015,5 hPa 0,0 l/m 3,2 km/h S-SW 6,83 h 2,9 UV-I 322 W/m 8,1 km/h
17.06.2013 20,0 C 72 % 1014,2 hPa 0,0 l/m 2,1 km/h O-SO 9,67 h 3,3 UV-I 396 W/m 4,8 km/h
18.06.2013 24,3 C 76 % 1014,3 hPa 0,0 l/m 0,6 km/h N-NW 13,00 h 3,6 UV-I 460 W/m 1,6 km/h
19.06.2013 26,4 C 75 % 1010,7 hPa 0,0 l/m 3,6 km/h SO 9,25 h 3,5 UV-I 387 W/m 12,4 km/h
20.06.2013 21,3 C 86 % 1009,6 hPa 9,0 l/m 1,1 km/h SO 6,33 h 3,0 UV-I 297 W/m 3,6 km/h
21.06.2013 16,8 C 84 % 1011,6 hPa 10,6 l/m 4,9 km/h S-SW 3,75 h 2,4 UV-I 286 W/m 13,7 km/h
22.06.2013 17,9 C 75 % 1011,7 hPa 0,0 l/m 9,8 km/h S 4,50 h 2,5 UV-I 297 W/m 22,9 km/h
23.06.2013 14,0 C 84 % 1011,3 hPa 4,8 l/m 5,8 km/h S 2,92 h 2,0 UV-I 229 W/m 15,3 km/h
24.06.2013 13,3 C 91 % 1019,0 hPa 3,0 l/m 0,6 km/h NW 2,18 h 2,2 UV-I 200 W/m 4,4 km/h
25.06.2013 11,1 C 88 % 1024,3 hPa 3,2 l/m 10,2 km/h N-NW 0,67 h 1,6 UV-I 129 W/m 22,1 km/h
26.06.2013 10,6 C 85 % 1025,3 hPa 2,2 l/m 3,2 km/h NW 0,58 h 1,8 UV-I 168 W/m 15,3 km/h
27.06.2013 11,4 C 88 % 1021,6 hPa 3,6 l/m 1,5 km/h S-SW 1,08 h 1,9 UV-I 190 W/m 6,9 km/h
28.06.2013 11,2 C 96 % 1018,3 hPa 5,6 l/m 0,6 km/h S 0,00 h 1,1 UV-I 97 W/m 4,0 km/h
29.06.2013 12,4 C 85 % 1017,9 hPa 6,2 l/m 4,0 km/h N-NW 2,58 h 2,1 UV-I 209 W/m 9,3 km/h
30.06.2013 12,8 C 87 % 1020,8 hPa 0,0 l/m 0,7 km/h S 4,83 h 2,1 UV-I 243 W/m 2,8 km/h
Min-Datum 30.06.13 06.06.13 21.06.13 13 Tage 01.06.13 - - - - 01.06.13
Min-Zeit 04:45 17:15 03:45 - 03:20 - - - - 07:20
Minimum 3,6 C 42 % 1006,5 hPa - 0,0 km/h - - - - 0,0 km/h
Max-Datum 19.06.13 01.06.13 26.06.13 13.06.13 21.06.13 - 18.06.13 13.06.13 10.06.13 15.06.13
Max-Zeit 17:15 20:30 14:35 17:50 11:05 - 20:05 13:25 13:35 13:10
Maximum 33,4 C 100 % 1026,8 hPa 16,0 l/m 31,2 km/h
S-SW
- 12,92 h 8,6 UV-I 1194 W/m 48,3 km/h
S
Durchschnitt 15,3 C 79 % 1016,7 hPa #65,2 l/m 3,6 km/h S #167:51 h 2,6 UV-I 291 W/m 10,4 km/h

Durchschnitt Minimum Temp.9,7 C
Durchschnitt Maximum Temp.20,4 C